createdAt,value
2023-02-22T00:01:47.585Z,4.99
2023-02-22T00:04:16.070Z,4.97
2023-02-22T00:06:42.747Z,5.05
2023-02-22T00:09:10.358Z,5.00
2023-02-22T00:11:38.586Z,5.07
2023-02-22T00:14:05.385Z,5.03
2023-02-22T00:16:31.982Z,5.01
2023-02-22T00:18:58.523Z,4.98
2023-02-22T00:21:25.118Z,4.82
2023-02-22T00:23:54.647Z,4.89
2023-02-22T00:26:23.470Z,4.83
2023-02-22T00:28:52.792Z,4.84
2023-02-22T00:31:20.811Z,4.98
2023-02-22T00:33:47.579Z,4.88
2023-02-22T00:36:14.521Z,4.85
2023-02-22T00:38:42.224Z,4.79
2023-02-22T00:41:09.690Z,4.72
2023-02-22T00:43:36.369Z,4.53
2023-02-22T00:46:03.161Z,4.60
2023-02-22T00:48:29.817Z,4.76
2023-02-22T00:50:56.561Z,4.77
2023-02-22T00:53:25.172Z,4.76
2023-02-22T00:55:52.233Z,4.87
2023-02-22T00:58:18.883Z,4.70
2023-02-22T01:00:46.209Z,4.65
2023-02-22T01:03:15.896Z,4.63
2023-02-22T01:05:43.895Z,4.59
2023-02-22T01:08:13.211Z,4.67
2023-02-22T01:10:40.579Z,4.65
2023-02-22T01:13:09.112Z,4.73
2023-02-22T01:15:41.878Z,4.78
2023-02-22T01:18:09.545Z,4.70
2023-02-22T01:20:37.063Z,4.59
2023-02-22T01:23:06.786Z,4.50
2023-02-22T01:25:34.365Z,4.55
2023-02-22T01:28:02.259Z,4.50
2023-02-22T01:30:33.133Z,4.44
2023-02-22T01:33:01.147Z,4.42
2023-02-22T01:35:33.637Z,4.35
2023-02-22T01:38:00.584Z,4.42
2023-02-22T01:40:33.446Z,4.40
2023-02-22T01:43:06.682Z,4.30
2023-02-22T01:45:33.166Z,4.36
2023-02-22T01:48:18.151Z,4.38
2023-02-22T01:50:56.955Z,4.27
2023-02-22T01:53:34.880Z,4.29
2023-02-22T01:56:02.937Z,4.26
2023-02-22T01:58:33.572Z,4.24
2023-02-22T02:01:01.178Z,4.23
2023-02-22T02:03:35.410Z,4.13
2023-02-22T02:06:05.227Z,4.08
2023-02-22T02:08:58.856Z,4.19
2023-02-22T02:15:31.176Z,4.04
2023-02-22T02:18:01.562Z,3.83
2023-02-22T02:20:38.485Z,3.93
2023-02-22T02:23:29.794Z,4.03
2023-02-22T02:26:21.967Z,4.02
2023-02-22T02:29:07.111Z,4.02
2023-02-22T02:32:16.511Z,4.05
2023-02-22T02:35:08.683Z,4.06
2023-02-22T02:37:42.352Z,3.81
2023-02-22T02:40:30.578Z,3.83
2023-02-22T02:43:01.510Z,3.89
2023-02-22T02:45:54.689Z,3.76
2023-02-22T02:48:25.602Z,3.74
2023-02-22T02:50:56.490Z,3.74
2023-02-22T02:53:27.744Z,3.80
2023-02-22T02:55:54.367Z,3.70
2023-02-22T02:58:23.937Z,3.90
2023-02-22T03:00:55.641Z,3.87
2023-02-22T03:03:52.471Z,3.83
2023-02-22T03:06:47.484Z,3.89
2023-02-22T03:09:25.771Z,4.00
2023-02-22T03:12:12.855Z,3.99
2023-02-22T03:15:15.367Z,4.00
2023-02-22T03:17:58.360Z,4.13
2023-02-22T03:20:37.579Z,4.20
2023-02-22T03:23:11.500Z,4.23
2023-02-22T03:25:43.242Z,4.27
2023-02-22T03:28:14.256Z,4.20
2023-02-22T03:31:02.103Z,4.18
2023-02-22T03:33:42.885Z,4.28
2023-02-22T03:36:28.532Z,4.20
2023-02-22T03:38:59.340Z,4.17
2023-02-22T03:41:28.969Z,4.16
2023-02-22T03:44:18.935Z,4.07
2023-02-22T03:46:48.845Z,4.10
2023-02-22T03:49:29.897Z,4.20
2023-02-22T03:51:56.982Z,4.20
2023-02-22T03:54:23.834Z,4.15
2023-02-22T03:56:56.774Z,4.24
2023-02-22T03:59:27.584Z,4.28
2023-02-22T04:01:56.041Z,4.22
2023-02-22T04:04:24.314Z,4.14
2023-02-22T04:06:52.040Z,3.98
2023-02-22T04:09:19.085Z,4.01
2023-02-22T04:11:46.490Z,3.96
2023-02-22T04:14:13.425Z,4.06
2023-02-22T04:16:40.043Z,4.04
2023-02-22T04:19:06.764Z,3.89
2023-02-22T04:21:33.330Z,4.01
2023-02-22T04:24:00.001Z,4.01
2023-02-22T04:26:26.624Z,4.02
2023-02-22T04:28:53.238Z,3.86
2023-02-22T04:31:20.152Z,3.88
2023-02-22T04:33:46.959Z,3.79
2023-02-22T04:36:15.981Z,3.82
2023-02-22T04:38:43.886Z,3.70
2023-02-22T04:41:11.388Z,3.71
2023-02-22T04:43:38.116Z,3.74
2023-02-22T04:46:04.993Z,3.70
2023-02-22T04:48:31.555Z,3.78
2023-02-22T04:50:58.233Z,3.85
2023-02-22T04:53:24.848Z,3.98
2023-02-22T04:55:51.522Z,3.96
2023-02-22T04:58:18.372Z,3.98
2023-02-22T05:00:45.167Z,3.83
2023-02-22T05:03:11.760Z,3.93
2023-02-22T05:05:38.612Z,3.78
2023-02-22T05:08:05.408Z,3.80
2023-02-22T05:10:31.938Z,3.82
2023-02-22T05:12:58.640Z,3.75
2023-02-22T05:15:25.651Z,3.67
2023-02-22T05:17:53.151Z,3.69
2023-02-22T05:20:30.171Z,3.77
2023-02-22T05:22:58.155Z,3.69
2023-02-22T05:25:25.312Z,3.51
2023-02-22T05:27:57.400Z,3.53
2023-02-22T05:30:28.918Z,3.56
2023-02-22T05:32:55.838Z,3.59
2023-02-22T05:35:23.872Z,3.56
2023-02-22T05:37:50.864Z,3.60
2023-02-22T05:40:22.670Z,3.63
2023-02-22T05:42:50.236Z,3.59
2023-02-22T05:45:19.800Z,3.56
2023-02-22T05:47:46.529Z,3.61
2023-02-22T05:50:14.514Z,3.54
2023-02-22T05:52:41.813Z,3.57
2023-02-22T05:55:09.796Z,3.49
2023-02-22T05:57:36.767Z,3.56
2023-02-22T06:00:05.729Z,3.51
2023-02-22T06:02:32.867Z,3.33
2023-02-22T06:04:59.751Z,3.38
2023-02-22T06:07:27.206Z,3.20
2023-02-22T06:09:53.945Z,3.17
2023-02-22T06:12:20.492Z,3.21
2023-02-22T06:14:47.115Z,3.17
2023-02-22T06:17:15.451Z,3.21
2023-02-22T06:19:42.127Z,3.21
2023-02-22T06:22:14.989Z,3.20
2023-02-22T06:24:41.480Z,3.28
2023-02-22T06:27:08.439Z,3.10
2023-02-22T06:29:34.932Z,3.16
2023-02-22T06:32:01.664Z,3.23
2023-02-22T06:34:28.272Z,3.38
2023-02-22T06:36:54.828Z,3.54
2023-02-22T06:39:21.311Z,3.52
2023-02-22T06:41:48.298Z,3.55
2023-02-22T06:44:15.383Z,3.61
2023-02-22T06:46:51.216Z,3.76
2023-02-22T06:49:19.496Z,3.90
2023-02-22T06:51:46.701Z,3.95
2023-02-22T06:54:14.142Z,4.08
2023-02-22T06:56:40.732Z,4.20
2023-02-22T06:59:08.698Z,4.27
2023-02-22T07:01:35.645Z,4.30
2023-02-22T07:04:02.616Z,4.44
2023-02-22T07:06:29.269Z,4.48
2023-02-22T07:08:56.056Z,4.62
2023-02-22T07:11:22.691Z,4.76
2023-02-22T07:13:49.246Z,4.79
2023-02-22T07:16:15.825Z,4.94
2023-02-22T07:18:42.525Z,5.01
2023-02-22T07:21:09.162Z,5.20
2023-02-22T07:23:35.736Z,5.27
2023-02-22T07:26:03.562Z,5.29
2023-02-22T07:28:30.121Z,5.27
2023-02-22T07:30:56.709Z,5.40
2023-02-22T07:33:23.299Z,5.37
2023-02-22T07:35:51.343Z,5.46
2023-02-22T07:38:20.551Z,5.45
2023-02-22T07:40:47.200Z,5.50
2023-02-22T07:43:27.720Z,5.49
2023-02-22T07:45:56.896Z,5.66
2023-02-22T07:48:25.801Z,5.77
2023-02-22T07:50:52.405Z,5.77
2023-02-22T07:53:26.696Z,5.78
2023-02-22T07:55:55.369Z,5.71
2023-02-22T07:58:24.022Z,5.78
2023-02-22T08:00:50.911Z,5.93
2023-02-22T08:03:20.287Z,6.10
2023-02-22T08:05:49.965Z,6.22
2023-02-22T08:08:19.406Z,6.38
2023-02-22T08:10:47.366Z,6.71
2023-02-22T08:13:14.592Z,6.94
2023-02-22T08:15:42.802Z,7.03
2023-02-22T08:18:11.980Z,7.08
2023-02-22T08:20:41.922Z,7.22
2023-02-22T08:23:09.664Z,7.39
2023-02-22T08:25:36.566Z,7.53
2023-02-22T08:28:09.436Z,7.75
2023-02-22T08:30:39.793Z,7.86
2023-02-22T08:33:06.956Z,8.05
2023-02-22T08:35:34.011Z,8.26
2023-02-22T08:38:03.911Z,8.49
2023-02-22T08:40:33.257Z,8.73
2023-02-22T08:43:01.711Z,8.85
2023-02-22T08:45:29.150Z,9.32
2023-02-22T08:47:55.827Z,9.51
2023-02-22T08:50:25.891Z,9.68
2023-02-22T08:52:58.725Z,9.51
2023-02-22T08:55:28.817Z,9.89
2023-02-22T08:57:55.466Z,10.04
2023-02-22T09:00:25.388Z,10.41
2023-02-22T09:02:53.065Z,10.49
2023-02-22T09:05:20.200Z,10.49
2023-02-22T09:07:47.555Z,10.44
2023-02-22T09:10:19.988Z,10.52
2023-02-22T09:12:46.526Z,10.73
2023-02-22T09:15:13.159Z,10.50
2023-02-22T09:17:39.868Z,10.25
2023-02-22T09:20:07.995Z,10.78
2023-02-22T09:22:34.654Z,10.93
2023-02-22T09:25:11.353Z,10.42
2023-02-22T09:27:43.711Z,11.50
2023-02-22T09:30:23.889Z,11.86
2023-02-22T09:32:53.219Z,11.77
2023-02-22T09:35:26.883Z,11.10
2023-02-22T09:37:58.554Z,10.57
2023-02-22T09:40:29.903Z,10.97
2023-02-22T09:43:24.139Z,11.20
2023-02-22T09:46:21.615Z,10.61
2023-02-22T09:48:53.563Z,11.00
2023-02-22T09:51:23.208Z,11.57
2023-02-22T09:53:52.361Z,11.67
2023-02-22T09:56:20.884Z,11.90
2023-02-22T09:58:52.309Z,11.69
2023-02-22T10:01:39.188Z,11.80
2023-02-22T10:04:11.290Z,12.22
2023-02-22T10:06:42.126Z,11.81
2023-02-22T10:09:11.008Z,11.89
2023-02-22T10:11:46.654Z,12.34
2023-02-22T10:14:57.441Z,11.98
2023-02-22T10:17:35.933Z,12.53
2023-02-22T10:20:04.934Z,12.14
2023-02-22T10:22:51.548Z,12.01
2023-02-22T10:25:22.510Z,12.18
2023-02-22T10:27:57.909Z,12.44
2023-02-22T10:30:35.173Z,12.54
2023-02-22T10:33:39.812Z,12.53
2023-02-22T10:36:15.220Z,12.40
2023-02-22T10:38:48.754Z,12.60
2023-02-22T10:41:26.393Z,12.76
2023-02-22T10:43:53.091Z,12.75
2023-02-22T10:46:22.822Z,12.71
2023-02-22T10:48:53.504Z,12.97
2023-02-22T10:51:20.906Z,12.90
2023-02-22T10:53:59.209Z,11.89
2023-02-22T10:56:28.032Z,11.99
2023-02-22T10:59:00.582Z,11.81
2023-02-22T11:01:33.133Z,12.35
2023-02-22T11:04:02.806Z,12.99
2023-02-22T11:06:30.138Z,13.24
2023-02-22T11:09:11.946Z,13.05
2023-02-22T11:11:41.941Z,13.05
2023-02-22T11:14:10.862Z,13.48
2023-02-22T11:16:42.268Z,13.55
2023-02-22T11:19:27.345Z,12.90
2023-02-22T11:21:59.209Z,13.22
2023-02-22T11:24:30.352Z,13.41
2023-02-22T11:27:02.665Z,13.24
2023-02-22T11:29:36.353Z,12.62
2023-02-22T11:32:21.397Z,12.60
2023-02-22T11:35:03.574Z,12.83
2023-02-22T11:37:37.263Z,13.09
2023-02-22T11:40:18.186Z,13.72
2023-02-22T11:42:45.118Z,13.49
2023-02-22T11:45:24.912Z,13.94
2023-02-22T11:47:52.652Z,14.00
2023-02-22T11:50:28.108Z,13.74
2023-02-22T11:53:05.360Z,14.31
2023-02-22T11:55:53.795Z,13.83
2023-02-22T11:58:44.184Z,14.11
2023-02-22T12:01:17.585Z,14.49
2023-02-22T12:04:36.821Z,14.44
2023-02-22T12:07:36.678Z,14.89
2023-02-22T12:10:37.386Z,14.04
2023-02-22T12:13:10.148Z,14.19
2023-02-22T12:15:44.463Z,14.37
2023-02-22T12:18:32.256Z,14.38
2023-02-22T12:21:02.197Z,14.74
2023-02-22T12:23:46.775Z,14.54
2023-02-22T12:26:32.418Z,15.56
2023-02-22T12:29:05.510Z,15.60
2023-02-22T12:31:33.998Z,15.36
2023-02-22T12:34:28.085Z,15.61
2023-02-22T12:37:21.188Z,15.07
2023-02-22T12:40:08.433Z,14.67
2023-02-22T12:42:47.253Z,14.51
2023-02-22T12:45:21.986Z,14.83
2023-02-22T12:48:02.343Z,15.36
2023-02-22T12:50:34.479Z,15.50
2023-02-22T12:53:14.546Z,15.74
2023-02-22T12:55:47.654Z,15.42
2023-02-22T12:58:39.001Z,15.24
2023-02-22T13:01:13.984Z,15.65
2023-02-22T13:03:44.632Z,15.62
2023-02-22T13:06:26.436Z,15.41
2023-02-22T13:09:01.990Z,15.23
2023-02-22T13:11:37.171Z,15.48
2023-02-22T13:14:27.880Z,15.49
2023-02-22T13:17:21.091Z,15.25
2023-02-22T13:20:02.867Z,16.03
2023-02-22T13:22:35.205Z,15.37
2023-02-22T13:25:41.234Z,15.51
2023-02-22T13:28:40.292Z,15.73
2023-02-22T13:31:06.923Z,16.46
2023-02-22T13:33:56.986Z,16.32
2023-02-22T13:36:44.721Z,16.28
2023-02-22T13:39:39.373Z,15.95
2023-02-22T13:42:25.557Z,16.27
2023-02-22T13:45:13.369Z,15.88
2023-02-22T13:47:42.634Z,15.84
2023-02-22T13:50:27.808Z,15.92
2023-02-22T13:52:58.143Z,16.04
2023-02-22T13:55:31.487Z,15.33
2023-02-22T13:58:04.649Z,15.43
2023-02-22T14:00:40.976Z,15.51
2023-02-22T14:03:27.652Z,15.86
2023-02-22T14:05:57.149Z,16.06
2023-02-22T14:08:27.956Z,16.11
2023-02-22T14:11:12.935Z,15.74
2023-02-22T14:13:55.928Z,16.05
2023-02-22T14:16:26.316Z,16.27
2023-02-22T14:19:13.408Z,16.18
2023-02-22T14:22:02.062Z,16.26
2023-02-22T14:24:42.734Z,16.39
2023-02-22T14:27:09.983Z,16.06
2023-02-22T14:29:36.886Z,15.80
2023-02-22T14:32:10.714Z,15.85
2023-02-22T14:34:54.606Z,15.90
2023-02-22T14:37:25.326Z,15.79
2023-02-22T14:39:53.673Z,16.10
2023-02-22T14:42:34.348Z,16.06
2023-02-22T14:45:13.962Z,15.58
2023-02-22T14:48:03.677Z,15.44
2023-02-22T14:50:45.396Z,15.19
2023-02-22T14:53:27.469Z,14.65
2023-02-22T14:56:14.558Z,15.06
2023-02-22T14:58:58.976Z,14.64
2023-02-22T15:01:40.298Z,14.92
2023-02-22T15:04:31.109Z,14.85
2023-02-22T15:07:00.004Z,14.91
2023-02-22T15:09:34.719Z,15.01
2023-02-22T15:12:05.028Z,15.16
2023-02-22T15:14:37.984Z,14.94
2023-02-22T15:17:12.141Z,14.98
2023-02-22T15:19:41.686Z,14.63
2023-02-22T15:22:22.689Z,14.71
2023-02-22T15:25:01.120Z,14.18
2023-02-22T15:27:28.830Z,13.95
2023-02-22T15:30:04.805Z,14.23
2023-02-22T15:32:50.007Z,14.23
2023-02-22T15:35:24.041Z,14.03
2023-02-22T15:38:17.555Z,13.80
2023-02-22T15:40:45.579Z,13.76
2023-02-22T15:43:31.161Z,13.60
2023-02-22T15:45:59.817Z,13.31
2023-02-22T15:48:27.657Z,13.43
2023-02-22T15:51:07.121Z,13.31
2023-02-22T15:53:39.937Z,13.12
2023-02-22T15:56:12.155Z,12.89
2023-02-22T15:58:39.274Z,13.06
2023-02-22T16:01:14.153Z,12.80
2023-02-22T16:03:50.188Z,12.94
2023-02-22T16:06:37.784Z,12.36
2023-02-22T16:09:10.549Z,12.72
2023-02-22T16:11:43.208Z,12.45
2023-02-22T16:14:35.887Z,12.56
2023-02-22T16:17:31.114Z,12.34
2023-02-22T16:19:59.574Z,12.34
2023-02-22T16:22:35.094Z,12.16
2023-02-22T16:25:21.616Z,12.30
2023-02-22T16:28:01.510Z,12.17
2023-02-22T16:30:37.508Z,12.14
2023-02-22T16:33:06.586Z,12.03
2023-02-22T16:35:35.655Z,11.96
2023-02-22T16:38:07.919Z,12.04
2023-02-22T16:40:39.061Z,11.88
2023-02-22T16:43:15.112Z,11.62
2023-02-22T16:45:42.666Z,11.56
2023-02-22T16:48:30.265Z,11.77
2023-02-22T16:51:02.522Z,11.72
2023-02-22T16:53:32.098Z,11.48
2023-02-22T16:56:04.323Z,11.35
2023-02-22T16:58:36.736Z,11.18
2023-02-22T17:01:03.490Z,11.21
2023-02-22T17:03:30.064Z,11.20
2023-02-22T17:05:56.724Z,11.02
2023-02-22T17:08:24.030Z,11.19
2023-02-22T17:10:52.760Z,11.13
2023-02-22T17:13:25.681Z,10.94
2023-02-22T17:15:54.937Z,10.76
2023-02-22T17:18:23.029Z,10.90
2023-02-22T17:20:51.807Z,10.84
2023-02-22T17:23:20.149Z,10.89
2023-02-22T17:25:53.751Z,10.86
2023-02-22T17:28:21.736Z,10.89
2023-02-22T17:30:49.165Z,10.99
2023-02-22T17:33:18.185Z,11.04
2023-02-22T17:35:46.975Z,10.87
2023-02-22T17:38:18.475Z,11.03
2023-02-22T17:40:56.330Z,10.93
2023-02-22T17:43:24.034Z,11.01
2023-02-22T17:45:51.038Z,11.11
2023-02-22T17:48:18.588Z,11.10
2023-02-22T17:50:46.590Z,11.23
2023-02-22T17:53:14.109Z,11.27
2023-02-22T17:55:42.238Z,11.28
2023-02-22T17:58:14.964Z,11.30
2023-02-22T18:00:44.736Z,11.27
2023-02-22T18:03:21.178Z,11.19
2023-02-22T18:05:50.522Z,10.94
2023-02-22T18:08:17.175Z,10.91
2023-02-22T18:10:44.414Z,10.93
2023-02-22T18:13:18.012Z,10.90
2023-02-22T18:15:45.807Z,10.94
2023-02-22T18:18:12.754Z,10.96
2023-02-22T18:20:43.950Z,10.89
2023-02-22T18:23:19.622Z,11.00
2023-02-22T18:26:07.665Z,10.93
2023-02-22T18:28:36.404Z,10.92
2023-02-22T18:31:10.162Z,10.94
2023-02-22T18:33:36.839Z,10.85
2023-02-22T18:36:03.703Z,10.83
2023-02-22T18:38:30.313Z,10.76
2023-02-22T18:40:59.859Z,10.69
2023-02-22T18:43:26.711Z,10.75
2023-02-22T18:45:53.456Z,10.72
2023-02-22T18:48:20.262Z,10.63
2023-02-22T18:50:46.798Z,10.84
2023-02-22T18:53:13.289Z,11.00
2023-02-22T18:55:39.914Z,11.01
2023-02-22T18:58:06.450Z,11.12
2023-02-22T19:00:35.246Z,11.20
2023-02-22T19:03:01.864Z,11.17
2023-02-22T19:05:28.695Z,11.03
2023-02-22T19:07:55.340Z,10.97
2023-02-22T19:10:22.539Z,10.91
2023-02-22T19:12:49.288Z,10.85
2023-02-22T19:15:15.993Z,10.76
2023-02-22T19:17:42.924Z,11.06
2023-02-22T19:20:10.758Z,10.96
2023-02-22T19:25:05.590Z,10.81
2023-02-22T19:27:34.114Z,10.78
2023-02-22T19:30:00.975Z,10.75
2023-02-22T19:32:27.652Z,10.69
2023-02-22T19:35:01.969Z,10.61
2023-02-22T19:37:35.704Z,10.48
2023-02-22T19:40:09.944Z,10.48
2023-02-22T19:42:36.523Z,10.54
2023-02-22T19:45:03.211Z,10.53
2023-02-22T19:47:29.800Z,10.55
2023-02-22T19:49:59.688Z,10.64
2023-02-22T19:52:28.916Z,10.64
2023-02-22T19:54:55.580Z,10.66
2023-02-22T19:57:24.254Z,10.67
2023-02-22T19:59:50.990Z,10.61
2023-02-22T20:02:17.859Z,10.80
2023-02-22T20:04:44.569Z,10.87
2023-02-22T20:07:11.121Z,10.76
2023-02-22T20:09:39.779Z,10.72
2023-02-22T20:12:07.114Z,10.67
2023-02-22T20:14:34.185Z,10.73
2023-02-22T20:17:00.936Z,10.76
2023-02-22T20:19:28.110Z,10.64
2023-02-22T20:21:55.983Z,10.78
2023-02-22T20:24:24.072Z,10.67
2023-02-22T20:26:55.808Z,10.56
2023-02-22T20:29:29.345Z,10.58
2023-02-22T20:31:58.504Z,10.65
2023-02-22T20:34:26.521Z,10.74
2023-02-22T20:36:53.974Z,10.88
2023-02-22T20:39:20.652Z,10.88
2023-02-22T20:41:47.572Z,10.92
2023-02-22T20:44:16.981Z,10.95
2023-02-22T20:46:44.267Z,10.76
2023-02-22T20:49:19.045Z,10.70
2023-02-22T20:51:46.998Z,10.72
2023-02-22T20:54:14.160Z,10.88
2023-02-22T20:56:43.308Z,10.73
2023-02-22T20:59:15.246Z,10.59
2023-02-22T21:01:42.613Z,10.73
2023-02-22T21:04:11.111Z,10.64
2023-02-22T21:06:39.060Z,10.66
2023-02-22T21:09:08.827Z,10.65
2023-02-22T21:11:36.674Z,10.59
2023-02-22T21:14:03.872Z,10.65
2023-02-22T21:16:33.366Z,10.69
2023-02-22T21:19:02.122Z,10.77
2023-02-22T21:21:29.985Z,10.86
2023-02-22T21:24:01.788Z,10.76
2023-02-22T21:26:32.453Z,10.71
2023-02-22T21:29:01.203Z,10.90
2023-02-22T21:31:28.754Z,10.90
2023-02-22T21:33:58.058Z,10.69
2023-02-22T21:36:26.031Z,10.77
2023-02-22T21:39:00.993Z,10.61
2023-02-22T21:41:30.459Z,10.65
2023-02-22T21:43:58.581Z,10.62
2023-02-22T21:46:27.622Z,10.70
2023-02-22T21:48:58.501Z,10.79
2023-02-22T21:51:34.530Z,10.92
2023-02-22T21:54:04.091Z,10.73
2023-02-22T21:56:34.422Z,10.67
2023-02-22T21:59:06.551Z,10.68
2023-02-22T22:01:47.230Z,10.66
2023-02-22T22:04:18.837Z,10.70
2023-02-22T22:06:50.937Z,10.63
2023-02-22T22:09:18.802Z,10.70
2023-02-22T22:11:47.071Z,10.72
2023-02-22T22:14:13.727Z,10.69
2023-02-22T22:16:40.675Z,10.59
2023-02-22T22:19:08.257Z,10.57
2023-02-22T22:21:34.888Z,10.51
2023-02-22T22:24:01.448Z,10.50
2023-02-22T22:26:28.107Z,10.50
2023-02-22T22:28:58.306Z,10.56
2023-02-22T22:31:26.425Z,10.63
2023-02-22T22:33:54.239Z,10.60
2023-02-22T22:36:22.102Z,10.60
2023-02-22T22:38:49.161Z,10.64
2023-02-22T22:41:19.797Z,10.61
2023-02-22T22:43:47.306Z,10.65
2023-02-22T22:46:16.417Z,10.62
2023-02-22T22:48:47.060Z,10.64
2023-02-22T22:51:18.595Z,10.56
2023-02-22T22:53:46.945Z,10.61
2023-02-22T22:56:29.097Z,10.56
2023-02-22T22:58:58.022Z,10.57
2023-02-22T23:01:34.186Z,10.44
2023-02-22T23:04:03.859Z,10.61
2023-02-22T23:06:36.659Z,10.60
2023-02-22T23:09:11.410Z,10.41
2023-02-22T23:11:46.524Z,10.37
2023-02-22T23:14:31.392Z,10.35
2023-02-22T23:17:05.527Z,10.37
2023-02-22T23:19:34.601Z,10.28
2023-02-22T23:22:05.277Z,10.29
2023-02-22T23:24:36.134Z,10.26
2023-02-22T23:27:07.357Z,10.16
2023-02-22T23:29:37.813Z,10.19
2023-02-22T23:32:06.025Z,10.18
2023-02-22T23:34:33.827Z,10.17
2023-02-22T23:37:00.308Z,10.18
2023-02-22T23:39:27.292Z,10.16
2023-02-22T23:42:01.217Z,10.08
2023-02-22T23:44:29.043Z,10.02
2023-02-22T23:46:56.132Z,9.96
2023-02-22T23:49:25.377Z,9.93
2023-02-22T23:51:52.691Z,9.77
2023-02-22T23:54:21.154Z,9.74
2023-02-22T23:56:56.634Z,9.72
2023-02-22T23:59:25.494Z,9.67
